Flight Track Log - Related Links

Times and Time Zones

All times are in EST time to prevent confusion due to time zone crossing. See the AAL963 flight status page for this flight to view local times or setup timezone preferences in your user account.

Time Position Orientation Groundspeed Altitude Reporting Facility
EST Latitude Longitude Course Direction KTS MPH feet Rate Location/Type
Tue 10:46:19 PM 32.8833 -97.0500 163° South 196 226 1,200  Level Dallas / Fort Worth TRACON
Tue 10:46:37 PM 32.8667 -97.0500 180° South 188 216 2,300 2,308 Climbing Dallas / Fort Worth TRACON
Tue 10:47:37 PM 32.8167 -97.0667 196° South 221 254 4,200 1,919 Climbing Dallas / Fort Worth TRACON
Tue 10:49:00 PM 32.6302 -96.6936 159° South  Level Estimated
Tue 10:50:00 PM 32.5411 -96.5793 148° Southeast  Level Estimated
Tue 10:51:00 PM 32.4519 -96.4652 163° South  Level Estimated
Tue 10:54:29 PM 32.2100 -96.7863 196° South 432 497 17,400  Level FlightAware ADS-B
Tue 10:55:00 PM 32.1515 -96.7642 162° South 438 504 18,500 2,066 Climbing FlightAware ADS-B
Tue 10:55:30 PM 32.0930 -96.7420 162° South 444 511 19,500 1,900 Climbing FlightAware ADS-B
Tue 10:56:00 PM 32.0319 -96.7191 162° South 452 520 20,400 1,676 Climbing FlightAware ADS-B
Tue 10:56:38 PM 31.9574 -96.6907 162° South 459 528 21,400 1,680 Climbing FlightAware ADS-B
Tue 10:57:15 PM 31.8804 -96.6617 162° South 467 537 22,500 1,765 Climbing FlightAware ADS-B
Tue 10:57:46 PM 31.8161 -96.6360 161° South 473 544 23,400 1,645 Climbing FlightAware ADS-B
Tue 10:58:17 PM 31.7531 -96.6097 160° South 478 550 24,200 1,412 Climbing FlightAware ADS-B
Tue 10:58:20 PM 31.7480 -96.6080 164° South 479 551 24,200 1,355 Level FlightAware ADS-B
Tue 10:58:48 PM 31.6873 -96.5825 160° South 484 557 24,900 1,500 Climbing FlightAware ADS-B
Tue 10:58:56 PM 31.6720 -96.5760 160° South 486 559 25,100 1,742 Climbing FlightAware ADS-B
Tue 10:59:19 PM 31.6219 -96.5557 161° South 486 559 25,800 1,688 Climbing FlightAware ADS-B
Tue 10:59:28 PM 31.6030 -96.5480 161° South 487 560 26,000 1,600 Climbing FlightAware ADS-B
Tue 10:59:49 PM 31.5570 -96.5293 161° South 487 560 26,600 1,600 Climbing FlightAware ADS-B
Tue 10:59:58 PM 31.5380 -96.5220 162° South 489 563 26,800 1,355 Climbing FlightAware ADS-B
Tue 11:00:20 PM 31.4920 -96.5032 161° South 490 564 27,300 1,273 Climbing FlightAware ADS-B
Tue 11:00:31 PM 31.4690 -96.4950 163° South 493 567 27,500 1,200 Climbing FlightAware ADS-B
Tue 11:00:50 PM 31.4247 -96.4783 162° South 495 570 27,900 1,200 Climbing FlightAware ADS-B
Tue 11:01:11 PM 31.3810 -96.4620 162° South 500 575 28,300 1,161 Climbing FlightAware ADS-B
Tue 11:01:21 PM 31.3578 -96.4537 163° South 500 575 28,500 1,200 Climbing FlightAware ADS-B
Tue 11:01:41 PM 31.3150 -96.4380 163° South 505 581 28,900 1,161 Climbing FlightAware ADS-B
Tue 11:01:52 PM 31.2886 -96.4282 162° South 505 581 29,100 1,029 Climbing FlightAware ADS-B
Tue 11:02:16 PM 31.2350 -96.4080 162° South 510 587 29,500 1,000 Climbing FlightAware ADS-B
Tue 11:02:22 PM 31.2212 -96.4027 162° South 511 588 29,600 1,000 Climbing FlightAware ADS-B
Tue 11:02:34 PM 31.1950 -96.3880 154° Southeast 518 596 29,800 1,200 Climbing FlightAware ADS-B
Tue 11:02:37 PM 31.1895 -96.3850 155° Southeast 518 596 29,900 1,667 Climbing FlightAware ADS-B
Tue 11:02:52 PM 31.1595 -96.3604 145° Southeast 523 602 30,300 1,500 Climbing FlightAware ADS-B
Tue 11:03:01 PM 31.1440 -96.3437 137° Southeast 524 603 30,500 1,263 Climbing FlightAware ADS-B
Tue 11:03:11 PM 31.1280 -96.3224 131° Southeast 527 606 30,700 732 Climbing FlightAware ADS-B
Tue 11:03:42 PM 31.0828 -96.2496 126° Southeast 527 606 31,000 500 Climbing FlightAware ADS-B
Tue 11:03:47 PM 31.0770 -96.2400 125° Southeast 527 606 31,000  Level FlightAware ADS-B
Tue 11:04:13 PM 31.0397 -96.1791 126° Southeast 528 608 31,000  Level FlightAware ADS-B
Tue 11:04:23 PM 31.0260 -96.1570 126° Southeast 529 609 31,000  Level FlightAware ADS-B
Tue 11:04:43 PM 30.9963 -96.1078 125° Southeast 528 608 31,000  Level FlightAware ADS-B
Tue 11:04:58 PM 30.9760 -96.0740 125° Southeast 527 606 31,000  Level FlightAware ADS-B
Tue 11:05:14 PM 30.9533 -96.0377 126° Southeast 526 605 31,000  Level FlightAware ADS-B
Tue 11:05:29 PM 30.9330 -96.0040 125° Southeast 526 605 31,000  Level FlightAware ADS-B
Tue 11:05:45 PM 30.9098 -95.9673 126° Southeast 525 604 31,000  Level FlightAware ADS-B
Tue 11:06:05 PM 30.8830 -95.9230 125° Southeast 525 604 31,000  Level FlightAware ADS-B
Tue 11:06:15 PM 30.8668 -95.8978 127° Southeast 524 603 31,000  Level FlightAware ADS-B
Tue 11:06:34 PM 30.8400 -95.8540 125° Southeast 525 604 31,000  Level FlightAware ADS-B
Tue 11:06:45 PM 30.8239 -95.8286 126° Southeast 524 603 31,000  Level FlightAware ADS-B
Tue 11:07:10 PM 30.7880 -95.7710 126° Southeast 525 604 31,000  Level FlightAware ADS-B
Tue 11:07:17 PM 30.7785 -95.7556 126° Southeast 524 603 31,000  Level FlightAware ADS-B
Tue 11:07:41 PM 30.7450 -95.7030 127° Southeast 524 603 31,000  Level FlightAware ADS-B
Tue 11:07:48 PM 30.7352 -95.6862 124° Southeast 523 602 31,000  Level FlightAware ADS-B
Tue 11:08:16 PM 30.6960 -95.6230 126° Southeast 524 603 31,000  Level FlightAware ADS-B
Tue 11:08:18 PM 30.6921 -95.6171 128° Southeast 523 602 31,000  Level FlightAware ADS-B
Tue 11:08:49 PM 30.6486 -95.5475 126° Southeast 524 603 31,000  Level FlightAware ADS-B
Tue 11:08:52 PM 30.6450 -95.5410 123° Southeast 525 604 31,000  Level FlightAware ADS-B
Tue 11:09:19 PM 30.6055 -95.4787 126° Southeast 526 605 31,000  Level FlightAware ADS-B
Tue 11:09:22 PM 30.6010 -95.4710 124° Southeast 527 606 31,000  Level FlightAware ADS-B
Tue 11:09:51 PM 30.5597 -95.4057 126° Southeast 526 605 31,000  Level FlightAware ADS-B
Tue 11:09:58 PM 30.5490 -95.3890 127° Southeast 527 606 31,000  Level FlightAware ADS-B
Tue 11:10:21 PM 30.5166 -95.3370 126° Southeast 526 605 31,000  Level FlightAware ADS-B
Tue 11:10:28 PM 30.5060 -95.3210 128° Southeast 527 606 31,000  Level FlightAware ADS-B
Tue 11:10:52 PM 30.4722 -95.2663 126° Southeast 526 605 31,000  Level FlightAware ADS-B
Tue 11:10:59 PM 30.4557 -95.2402 126° Southeast 526 605 31,000  Level FlightAware ADS-B
Tue 11:11:04 PM 30.4560 -95.2400 31° Northeast 526 605 31,000  Level FlightAware ADS-B
Tue 11:11:22 PM 30.4292 -95.1981 127° Southeast 525 604 31,000  Level FlightAware ADS-B
Tue 11:11:35 PM 30.4130 -95.1730 127° Southeast 526 605 31,000  Level FlightAware ADS-B
Tue 11:11:38 PM 30.4022 -95.1553 125° Southeast 525 604 31,000  Level FlightAware ADS-B
Tue 11:11:52 PM 30.3861 -95.1300 126° Southeast 525 604 31,000  Level FlightAware ADS-B
Tue 11:12:10 PM 30.3600 -95.0890 126° Southeast 526 605 31,000  Level FlightAware ADS-B
Tue 11:12:22 PM 30.3429 -95.0616 126° Southeast 526 605 31,000  Level FlightAware ADS-B
Tue 11:12:47 PM 30.3080 -95.0070 127° Southeast 528 608 31,000  Level FlightAware ADS-B
Tue 11:12:53 PM 30.2992 -94.9927 125° Southeast 527 606 31,000  Level FlightAware ADS-B
Tue 11:12:58 PM 30.2896 -94.9775 126° Southeast 528 608 31,000  Level FlightAware ADS-B
Tue 11:13:15 PM 30.2672 -94.9428 127° Southeast 528 608 31,000  Level FlightAware ADS-B
Tue 11:13:16 PM 30.2660 -94.9400 116° Southeast 529 609 31,000  Level FlightAware ADS-B
Tue 11:13:28 PM 30.2373 -94.9009 130° Southeast 527 606 31,000  Level FlightAware ADS-B
Tue 11:13:45 PM 30.2199 -94.8786 132° Southeast 527 606 31,000  Level FlightAware ADS-B
Tue 11:13:52 PM 30.2080 -94.8640 133° Southeast 527 606 31,000  Level FlightAware ADS-B
Tue 11:14:05 PM 30.1857 -94.8387 136° Southeast 524 603 31,000  Level FlightAware ADS-B
Tue 11:14:23 PM 30.1530 -94.8050 138° Southeast 524 603 31,000  Level FlightAware ADS-B
Tue 11:14:35 PM 30.1314 -94.7836 139° Southeast 522 601 31,000  Level FlightAware ADS-B
Tue 11:14:39 PM 30.1130 -94.7656 140° Southeast 521 600 31,000  Level FlightAware ADS-B
Tue 11:14:53 PM 30.0980 -94.7510 140° Southeast 522 601 31,000  Level FlightAware ADS-B
Tue 11:15:05 PM 30.0756 -94.7291 140° Southeast 520 598 31,000  Level FlightAware ADS-B
Tue 11:15:18 PM 30.0471 -94.7014 140° Southeast 520 598 31,000  Level FlightAware ADS-B
Tue 11:15:29 PM 30.0340 -94.6880 139° Southeast 521 600 31,000  Level FlightAware ADS-B
Tue 11:15:35 PM 30.0200 -94.6749 141° Southeast 520 598 31,000  Level FlightAware ADS-B
Tue 11:16:04 PM 29.9670 -94.6230 140° Southeast 521 600 31,000  Level FlightAware ADS-B
Tue 11:16:05 PM 29.9645 -94.6207 141° Southeast 520 598 31,000  Level FlightAware ADS-B
Tue 11:16:29 PM 29.9114 -94.5687 140° Southeast 519 597 31,000  Level FlightAware ADS-B
Tue 11:16:35 PM 29.9130 -94.5700 325° Northwest 520 598 31,000  Level FlightAware ADS-B
Tue 11:16:36 PM 29.9087 -94.5660 141° Southeast 519 597 31,000  Level FlightAware ADS-B
Tue 11:16:59 PM 29.8575 -94.5159 140° Southeast 519 597 31,000  Level FlightAware ADS-B
Tue 11:17:06 PM 29.8527 -94.5113 140° Southeast 519 597 31,000  Level FlightAware ADS-B
Tue 11:17:11 PM 29.8450 -94.5040 141° Southeast 520 598 31,000  Level FlightAware ADS-B
Tue 11:17:37 PM 29.7975 -94.4573 140° Southeast 519 597 31,000  Level FlightAware ADS-B
Tue 11:17:39 PM 29.7849 -94.4449 140° Southeast 519 597 31,000  Level FlightAware ADS-B
Tue 11:17:44 PM 29.7850 -94.4450 335° Northwest 520 598 31,000  Level FlightAware ADS-B
Tue 11:18:07 PM 29.7419 -94.4031 140° Southeast 520 598 31,000  Level FlightAware ADS-B
Tue 11:18:09 PM 29.7282 -94.3897 140° Southeast 519 597 31,000  Level FlightAware ADS-B
Tue 11:18:37 PM 29.6861 -94.3488 140° Southeast 521 600 31,000  Level FlightAware ADS-B
Tue 11:18:44 PM 29.6730 -94.3360 140° Southeast 522 601 31,000  Level FlightAware ADS-B
Tue 11:18:49 PM 29.6553 -94.3188 140° Southeast 520 598 31,000  Level FlightAware ADS-B
Tue 11:19:08 PM 29.6303 -94.2945 140° Southeast 519 597 31,000  Level FlightAware ADS-B
Tue 11:19:19 PM 29.5996 -94.2647 140° Southeast 520 598 31,000  Level FlightAware ADS-B
Tue 11:19:38 PM 29.5746 -94.2405 140° Southeast 520 598 31,000  Level FlightAware ADS-B
Tue 11:19:49 PM 29.5454 -94.2122 140° Southeast 519 597 31,000  Level FlightAware ADS-B
Tue 11:20:00 PM 29.5350 -94.2020 140° Southeast 521 600 31,000  Level FlightAware ADS-B
Tue 11:20:08 PM 29.5192 -94.1867 140° Southeast 521 600 31,000  Level FlightAware ADS-B
Tue 11:20:19 PM 29.4928 -94.1605 139° Southeast 520 598 31,000  Level FlightAware ADS-B
Tue 11:20:38 PM 29.4644 -94.1326 139° Southeast 521 600 31,000  Level FlightAware ADS-B
Tue 11:20:59 PM 29.4226 -94.0913 139° Southeast 520 598 31,000  Level FlightAware ADS-B
Tue 11:21:09 PM 29.4082 -94.0771 139° Southeast 520 598 31,000  Level FlightAware ADS-B
Tue 11:21:20 PM 29.3890 -94.0590 141° Southeast 521 600 31,000  Level FlightAware ADS-B
Tue 11:21:29 PM 29.3648 -94.0345 139° Southeast 518 596 31,000  Level FlightAware ADS-B
Tue 11:21:39 PM 29.3530 -94.0229 139° Southeast 518 596 31,000  Level FlightAware ADS-B
Tue 11:22:16 PM 29.2871 -93.9584 140° Southeast 517 595 31,000  Level FlightAware ADS-B
Tue 11:22:18 PM 29.2760 -93.9476 140° Southeast 517 595 31,000  Level FlightAware ADS-B
Tue 11:22:47 PM 29.2305 -93.9031 140° Southeast 518 596 31,000  Level FlightAware ADS-B
Tue 11:23:02 PM 29.1931 -93.8667 140° Southeast 518 596 31,000  Level FlightAware ADS-B
Tue 11:23:30 PM 29.1519 -93.8265 140° Southeast 517 595 31,000 -94 Level FlightAware ADS-B
Tue 11:24:06 PM 29.0933 -93.7689 140° Southeast 516 594 30,900 -63 Descending Houston Center
Tue 11:25:06 PM 28.9844 -93.6622 139° Southeast 518 596 30,900 50 Level Houston Center
Tue 11:26:07 PM 28.8747 -93.5569 140° Southeast 516 594 31,000  Climbing Houston Center
Tue 11:27:08 PM 28.7661 -93.4514 140° Southeast 516 594 30,900  Descending Houston Center
Tue 11:28:08 PM 28.6561 -93.3458 140° Southeast 518 596 31,000 50 Climbing Houston Center
Tue 11:29:09 PM 28.5431 -93.2367 140° Southeast 511 588 31,000 -50 Level Houston Center
Tue 11:30:09 PM 28.4389 -93.1386 140° Southeast 511 588 30,900  Descending Houston Center
Tue 11:31:10 PM 28.3289 -93.0333 140° Southeast 516 594 31,000  Climbing Houston Center
Tue 11:32:11 PM 28.2189 -92.9286 140° Southeast 517 595 30,900 -50 Descending Houston Center
Tue 11:33:11 PM 28.1094 -92.8242 140° Southeast 515 593 30,900 50 Level Houston Center
Tue 11:34:12 PM 28.0006 -92.7197 140° Southeast 513 590 31,000  Climbing Houston Center
Tue 11:35:12 PM 27.8917 -92.6181 140° Southeast 511 588 30,900  Descending Houston Center
Tue 11:36:13 PM 27.7828 -92.5158 140° Southeast 508 585 31,000  Climbing Houston Center
Tue 11:37:14 PM 27.6733 -92.4131 140° Southeast 512 589 30,900 -98 Descending Houston Center
Tue 11:39:00 PM 27.4880 -92.2368 140° Southeast  Level FlightAware Approximate
Tue 11:46:00 PM 26.7252 -91.5805 144° Southeast  Level FlightAware Approximate
Tue 11:47:00 PM 26.6133 -91.4916 145° Southeast  Level FlightAware Approximate
Tue 11:48:00 PM 26.5014 -91.4029 145° Southeast  Level FlightAware Approximate
Tue 11:49:00 PM 26.3894 -91.3144 145° Southeast  Level FlightAware Approximate
Tue 11:50:00 PM 26.2773 -91.2260 145° Southeast  Level FlightAware Approximate
Tue 11:51:00 PM 26.1652 -91.1378 145° Southeast  Level FlightAware Approximate
Tue 11:52:00 PM 26.0531 -91.0498 145° Southeast  Level FlightAware Approximate
Tue 11:53:00 PM 25.9408 -90.9620 145° Southeast  Level FlightAware Approximate
Tue 11:54:00 PM 25.8286 -90.8743 145° Southeast  Level FlightAware Approximate
Tue 11:55:00 PM 25.7163 -90.7868 145° Southeast  Level FlightAware Approximate
Tue 11:56:00 PM 25.6039 -90.6994 145° Southeast  Level FlightAware Approximate
Tue 11:57:00 PM 25.4915 -90.6122 145° Southeast  Level FlightAware Approximate
Tue 11:58:00 PM 25.3790 -90.5252 145° Southeast  Level FlightAware Approximate
Tue 11:59:00 PM 25.2665 -90.4383 145° Southeast  Level FlightAware Approximate
Wed 12:00:00 AM 25.1539 -90.3516 145° Southeast  Level FlightAware Approximate
Wed 12:01:00 AM 25.0413 -90.2650 145° Southeast  Level FlightAware Approximate
Wed 12:02:00 AM 24.9288 -90.1785 145° Southeast  Level FlightAware Approximate
Wed 12:03:00 AM 24.8162 -90.0920 145° Southeast  Level FlightAware Approximate
Wed 12:04:00 AM 24.7036 -90.0057 145° Southeast  Level FlightAware Approximate
Wed 12:05:00 AM 24.5910 -89.9195 145° Southeast  Level FlightAware Approximate
Wed 12:06:00 AM 24.4801 -89.8309 145° Southeast  Level FlightAware Approximate
Wed 12:07:00 AM 24.3678 -89.7444 145° Southeast  Level FlightAware Approximate
Wed 12:08:00 AM 24.2550 -89.6586 148° Southeast  Level FlightAware Approximate
Wed 12:09:00 AM 24.1390 -89.5782 148° Southeast  Level FlightAware Approximate
Wed 12:10:00 AM 24.0238 -89.4967 145° Southeast  Level FlightAware Approximate
Wed 12:11:00 AM 23.9111 -89.4111 145° Southeast  Level FlightAware Approximate
Wed 12:12:00 AM 23.7984 -89.3256 145° Southeast  Level FlightAware Approximate
Wed 12:13:00 AM 23.6856 -89.2403 145° Southeast  Level FlightAware Approximate
Wed 12:14:00 AM 23.5727 -89.1551 145° Southeast  Level FlightAware Approximate
Wed 12:15:00 AM 23.4598 -89.0700 145° Southeast  Level FlightAware Approximate
Wed 12:16:00 AM 23.3469 -88.9851 145° Southeast  Level FlightAware Approximate
Wed 12:17:00 AM 23.2339 -88.9004 145° Southeast  Level FlightAware Approximate
Wed 12:18:00 AM 23.1211 -88.8153 145° Southeast  Level FlightAware Approximate
Wed 12:19:00 AM 23.0087 -88.7298 145° Southeast  Level FlightAware Approximate
Wed 12:20:00 AM 22.8963 -88.6445 145° Southeast  Level FlightAware Approximate
Wed 12:21:00 AM 22.7838 -88.5592 145° Southeast  Level FlightAware Approximate
Wed 12:22:00 AM 22.6722 -88.4728 139° Southeast  Level FlightAware Approximate
Wed 12:23:00 AM 22.5689 -88.3750 139° Southeast  Level FlightAware Approximate
Wed 12:24:00 AM 22.4655 -88.2774 139° Southeast  Level FlightAware Approximate
Wed 12:25:00 AM 22.3626 -88.1791 137° Southeast  Level FlightAware Approximate
Wed 12:26:00 AM 22.2623 -88.0780 137° Southeast  Level FlightAware Approximate
Wed 12:27:00 AM 22.1618 -87.9771 137° Southeast  Level FlightAware Approximate
Wed 12:28:00 AM 22.0613 -87.8762 137° Southeast  Level FlightAware Approximate
Wed 12:29:00 AM 21.9608 -87.7756 137° Southeast  Level FlightAware Approximate
Wed 12:30:00 AM 21.8601 -87.6750 137° Southeast  Level FlightAware Approximate
Wed 12:31:00 AM 21.7595 -87.5746 137° Southeast  Level FlightAware Approximate
Wed 12:32:00 AM 21.6587 -87.4744 137° Southeast  Level FlightAware Approximate
Wed 12:33:00 AM 21.5579 -87.3742 137° Southeast  Level FlightAware Approximate
Wed 12:34:00 AM 21.4565 -87.2749 138° Southeast  Level FlightAware Approximate
Wed 12:35:00 AM 21.3546 -87.1762 138° Southeast  Level FlightAware Approximate
Wed 12:36:00 AM 21.2527 -87.0776 138° Southeast  Level FlightAware Approximate
Wed 12:37:00 AM 21.1507 -86.9791 138° Southeast  Level FlightAware Approximate
Wed 12:38:00 AM 21.0487 -86.8808 138° Southeast  Level FlightAware Approximate
Wed 12:39:00 AM 20.9454 -86.7841 139° Southeast  Level FlightAware Approximate
Wed 12:40:00 AM 20.8415 -86.6882 139° Southeast  Level FlightAware Approximate
Wed 12:41:00 AM 20.7398 -86.5897 137° Southeast  Level FlightAware Approximate
Wed 12:42:00 AM 20.6396 -86.4895 137° Southeast  Level FlightAware Approximate
Wed 12:43:00 AM 20.5382 -86.3908 139° Southeast  Level FlightAware Approximate
Wed 12:44:00 AM 20.4353 -86.2939 139° Southeast  Level FlightAware Approximate
Wed 12:45:00 AM 20.3324 -86.1971 139° Southeast  Level FlightAware Approximate
Wed 12:46:00 AM 20.2315 -86.0980 137° Southeast  Level FlightAware Approximate
Wed 12:47:00 AM 20.1315 -85.9979 137° Southeast  Level FlightAware Approximate
Wed 12:48:00 AM 20.0314 -85.8980 137° Southeast  Level FlightAware Approximate
Wed 12:49:00 AM 19.9291 -85.8006 138° Southeast  Level FlightAware Approximate
Wed 12:50:00 AM 19.8265 -85.7038 138° Southeast  Level FlightAware Approximate
Wed 12:51:00 AM 19.7238 -85.6071 138° Southeast  Level FlightAware Approximate
Wed 12:52:00 AM 19.6210 -85.5106 138° Southeast  Level FlightAware Approximate
Wed 12:53:00 AM 19.5182 -85.4141 139° Southeast  Level FlightAware Approximate
Wed 12:54:00 AM 19.4154 -85.3178 139° Southeast  Level FlightAware Approximate
Wed 12:55:00 AM 19.3125 -85.2216 139° Southeast  Level FlightAware Approximate
Wed 12:56:00 AM 19.2095 -85.1256 139° Southeast  Level FlightAware Approximate
Wed 12:57:00 AM 19.1065 -85.0296 139° Southeast  Level FlightAware Approximate
Wed 12:58:00 AM 19.0034 -84.9338 139° Southeast  Level FlightAware Approximate
Wed 12:59:00 AM 18.9003 -84.8381 139° Southeast  Level FlightAware Approximate
Wed 01:00:00 AM 18.7972 -84.7425 139° Southeast  Level FlightAware Approximate
Wed 01:01:00 AM 18.6940 -84.6470 139° Southeast  Level FlightAware Approximate
Wed 01:02:00 AM 18.5907 -84.5516 139° Southeast  Level FlightAware Approximate
Wed 01:03:00 AM 18.4984 -84.4540 123° Southeast  Level FlightAware Approximate
Wed 01:04:00 AM 18.4257 -84.3383 125° Southeast  Level FlightAware Approximate
Wed 01:05:00 AM 18.3508 -84.2242 125° Southeast  Level FlightAware Approximate
Wed 01:06:00 AM 18.2759 -84.1102 125° Southeast  Level FlightAware Approximate
Wed 01:07:00 AM 18.2009 -83.9962 125° Southeast  Level FlightAware Approximate
Wed 01:08:00 AM 18.1258 -83.8824 125° Southeast  Level FlightAware Approximate
Wed 01:09:00 AM 18.0507 -83.7687 125° Southeast  Level FlightAware Approximate
Wed 01:10:00 AM 17.9755 -83.6551 125° Southeast  Level FlightAware Approximate
Wed 01:11:00 AM 17.8879 -83.5525 135° Southeast  Level FlightAware Approximate
Wed 01:12:00 AM 17.7939 -83.4556 136° Southeast  Level FlightAware Approximate
Wed 01:13:00 AM 17.7000 -83.3588 136° Southeast  Level FlightAware Approximate
Wed 01:14:00 AM 17.6059 -83.2621 136° Southeast  Level FlightAware Approximate
Wed 01:15:00 AM 17.5119 -83.1655 136° Southeast  Level FlightAware Approximate
Wed 01:16:00 AM 17.4178 -83.0690 136° Southeast  Level FlightAware Approximate
Wed 01:17:00 AM 17.3213 -82.9752 139° Southeast  Level FlightAware Approximate
Wed 01:18:00 AM 17.2221 -82.8845 139° Southeast  Level FlightAware Approximate
Wed 01:19:00 AM 17.1229 -82.7940 139° Southeast  Level FlightAware Approximate
Wed 01:20:00 AM 17.0236 -82.7035 139° Southeast  Level FlightAware Approximate
Wed 01:21:00 AM 16.9243 -82.6132 139° Southeast  Level FlightAware Approximate
Wed 01:22:00 AM 16.8250 -82.5229 139° Southeast  Level FlightAware Approximate
Wed 01:23:00 AM 16.7256 -82.4327 139° Southeast  Level FlightAware Approximate
Wed 01:24:00 AM 16.6262 -82.3426 139° Southeast  Level FlightAware Approximate
Wed 01:25:00 AM 16.5267 -82.2526 139° Southeast  Level FlightAware Approximate
Wed 01:26:00 AM 16.4292 -82.1606 134° Southeast  Level FlightAware Approximate
Wed 01:27:00 AM 16.3383 -82.0613 134° Southeast  Level FlightAware Approximate
Wed 01:28:00 AM 16.2473 -81.9622 134° Southeast  Level FlightAware Approximate
Wed 01:29:00 AM 16.1563 -81.8632 134° Southeast  Level FlightAware Approximate
Wed 01:30:00 AM 16.0652 -81.7642 134° Southeast  Level FlightAware Approximate
Wed 01:31:00 AM 15.9741 -81.6653 134° Southeast  Level FlightAware Approximate
Wed 01:32:00 AM 15.8829 -81.5666 134° Southeast  Level FlightAware Approximate
Wed 01:33:00 AM 15.7917 -81.4679 134° Southeast  Level FlightAware Approximate
Wed 01:34:00 AM 15.7005 -81.3693 134° Southeast  Level FlightAware Approximate
Wed 01:35:00 AM 15.6092 -81.2707 134° Southeast  Level FlightAware Approximate
Wed 01:36:00 AM 15.5179 -81.1723 134° Southeast  Level FlightAware Approximate
Wed 01:37:00 AM 15.4265 -81.0740 134° Southeast  Level FlightAware Approximate
Wed 01:38:00 AM 15.3351 -80.9757 134° Southeast  Level FlightAware Approximate
Wed 01:39:00 AM 15.2437 -80.8775 134° Southeast  Level FlightAware Approximate
Wed 01:40:00 AM 15.1522 -80.7795 134° Southeast  Level FlightAware Approximate
Wed 01:41:00 AM 15.0606 -80.6815 134° Southeast  Level FlightAware Approximate
Wed 01:42:00 AM 14.9649 -80.5883 142° Southeast  Level FlightAware Approximate
Wed 01:43:00 AM 14.8612 -80.5044 142° Southeast  Level FlightAware Approximate
Wed 01:44:00 AM 14.7575 -80.4205 142° Southeast  Level FlightAware Approximate
Wed 01:45:00 AM 14.6537 -80.3368 142° Southeast  Level FlightAware Approximate
Wed 01:46:00 AM 14.5499 -80.2531 142° Southeast  Level FlightAware Approximate
Wed 01:47:00 AM 14.4465 -80.1689 142° Southeast  Level FlightAware Approximate
Wed 01:48:00 AM 14.3430 -80.0849 142° Southeast  Level FlightAware Approximate
Wed 01:49:00 AM 14.2395 -80.0010 142° Southeast  Level FlightAware Approximate
Wed 01:50:00 AM 14.1360 -79.9171 142° Southeast  Level FlightAware Approximate
Wed 01:51:00 AM 14.0324 -79.8333 142° Southeast  Level FlightAware Approximate
Wed 01:52:00 AM 13.9288 -79.7496 142° Southeast  Level FlightAware Approximate
Wed 01:53:00 AM 13.8252 -79.6659 142° Southeast  Level FlightAware Approximate
Wed 01:54:00 AM 13.7216 -79.5823 142° Southeast  Level FlightAware Approximate
Wed 01:55:00 AM 13.6179 -79.4988 142° Southeast  Level FlightAware Approximate
Wed 01:56:00 AM 13.5142 -79.4154 142° Southeast  Level FlightAware Approximate
Wed 01:57:00 AM 13.4105 -79.3321 142° Southeast  Level FlightAware Approximate
Wed 01:58:00 AM 13.3067 -79.2488 142° Southeast  Level FlightAware Approximate
Wed 01:59:00 AM 13.2024 -79.1662 143° Southeast  Level FlightAware Approximate
Wed 02:00:00 AM 13.0978 -79.0841 143° Southeast  Level FlightAware Approximate
Wed 02:01:00 AM 12.9932 -79.0021 143° Southeast  Level FlightAware Approximate
Wed 02:02:00 AM 12.8886 -78.9201 143° Southeast  Level FlightAware Approximate
Wed 02:03:00 AM 12.7839 -78.8382 143° Southeast  Level FlightAware Approximate
Wed 02:04:00 AM 12.6792 -78.7563 143° Southeast  Level FlightAware Approximate
Wed 02:05:00 AM 12.5745 -78.6746 143° Southeast  Level FlightAware Approximate
Wed 02:06:00 AM 12.4698 -78.5929 143° Southeast  Level FlightAware Approximate
Wed 02:07:00 AM 12.3650 -78.5113 143° Southeast  Level FlightAware Approximate
Wed 02:08:00 AM 12.2602 -78.4297 143° Southeast  Level FlightAware Approximate
Wed 02:09:00 AM 12.1554 -78.3482 143° Southeast  Level FlightAware Approximate
Wed 02:10:00 AM 12.0505 -78.2667 143° Southeast  Level FlightAware Approximate
Wed 02:11:00 AM 11.9457 -78.1854 143° Southeast  Level FlightAware Approximate
Wed 02:12:00 AM 11.8408 -78.1041 143° Southeast  Level FlightAware Approximate
Wed 02:13:00 AM 11.7359 -78.0228 143° Southeast  Level FlightAware Approximate
Wed 02:14:00 AM 11.6309 -77.9416 143° Southeast  Level FlightAware Approximate
Wed 02:15:00 AM 11.5260 -77.8605 143° Southeast  Level FlightAware Approximate
Wed 02:16:00 AM 11.4210 -77.7794 143° Southeast  Level FlightAware Approximate
Wed 02:17:00 AM 11.3162 -77.6986 143° Southeast  Level FlightAware Approximate
Wed 02:18:00 AM 11.2114 -77.6178 143° Southeast  Level FlightAware Approximate
Wed 02:19:00 AM 11.1065 -77.5370 143° Southeast  Level FlightAware Approximate
Wed 02:20:00 AM 11.0016 -77.4564 143° Southeast  Level FlightAware Approximate
Wed 02:21:00 AM 10.9010 -77.3706 137° Southeast  Level FlightAware Approximate
Wed 02:22:00 AM 10.8044 -77.2799 137° Southeast  Level FlightAware Approximate
Wed 02:23:00 AM 10.7077 -77.1892 137° Southeast  Level FlightAware Approximate
Wed 02:24:00 AM 10.6111 -77.0986 137° Southeast  Level FlightAware Approximate
Wed 02:25:00 AM 10.5144 -77.0081 137° Southeast  Level FlightAware Approximate
Wed 02:26:00 AM 10.4177 -76.9176 137° Southeast  Level FlightAware Approximate
Wed 02:27:00 AM 10.3210 -76.8270 137° Southeast  Level FlightAware Approximate
Wed 02:28:00 AM 10.2244 -76.7365 137° Southeast  Level FlightAware Approximate
Wed 02:29:00 AM 10.1277 -76.6461 137° Southeast  Level FlightAware Approximate
Wed 02:30:00 AM 10.0310 -76.5557 137° Southeast  Level FlightAware Approximate
Wed 02:31:00 AM 9.9343 -76.4654 137° Southeast  Level FlightAware Approximate
Wed 02:32:00 AM 9.8368 -76.3759 138° Southeast  Level FlightAware Approximate
Wed 02:33:00 AM 9.7388 -76.2870 138° Southeast  Level FlightAware Approximate
Wed 02:34:00 AM 9.6409 -76.1982 138° Southeast  Level FlightAware Approximate
Wed 02:35:00 AM 9.5428 -76.1094 138° Southeast  Level FlightAware Approximate
Wed 02:36:00 AM 9.4448 -76.0207 138° Southeast  Level FlightAware Approximate
Wed 02:37:00 AM 9.3469 -75.9318 138° Southeast  Level FlightAware Approximate
Wed 02:38:00 AM 9.2497 -75.8422 138° Southeast  Level FlightAware Approximate
Wed 02:39:00 AM 9.1524 -75.7527 138° Southeast  Level FlightAware Approximate
Wed 02:40:00 AM 9.0551 -75.6633 138° Southeast  Level FlightAware Approximate
Wed 02:41:00 AM 8.9578 -75.5739 138° Southeast  Level FlightAware Approximate
Wed 02:42:00 AM 8.8604 -75.4845 138° Southeast  Level FlightAware Approximate
Wed 02:43:00 AM 8.7631 -75.3952 138° Southeast  Level FlightAware Approximate
Wed 02:44:00 AM 8.6657 -75.3059 138° Southeast  Level FlightAware Approximate
Wed 02:45:00 AM 8.5682 -75.2167 138° Southeast  Level FlightAware Approximate
Wed 02:46:00 AM 8.4708 -75.1275 138° Southeast  Level FlightAware Approximate
Wed 02:47:00 AM 8.3734 -75.0384 138° Southeast  Level FlightAware Approximate
Wed 02:48:00 AM 8.2759 -74.9493 138° Southeast  Level FlightAware Approximate
Wed 02:49:00 AM 8.1784 -74.8603 138° Southeast  Level FlightAware Approximate
Wed 02:50:00 AM 8.0809 -74.7712 138° Southeast  Level FlightAware Approximate
Wed 02:51:00 AM 7.9834 -74.6823 138° Southeast  Level FlightAware Approximate
Wed 02:52:00 AM 7.8858 -74.5934 138° Southeast  Level FlightAware Approximate
Wed 02:53:00 AM 7.7883 -74.5045 138° Southeast  Level FlightAware Approximate
Wed 02:54:00 AM 7.6909 -74.4154 138° Southeast  Level FlightAware Approximate
Wed 02:55:00 AM 7.5935 -74.3264 138° Southeast  Level FlightAware Approximate
Wed 02:56:00 AM 7.4961 -74.2374 138° Southeast  Level FlightAware Approximate
Wed 02:57:00 AM 7.3987 -74.1484 138° Southeast  Level FlightAware Approximate
Wed 02:58:00 AM 7.3013 -74.0595 138° Southeast  Level FlightAware Approximate
Wed 02:59:00 AM 7.2038 -73.9706 138° Southeast  Level FlightAware Approximate
Wed 03:00:00 AM 7.1064 -73.8817 138° Southeast  Level FlightAware Approximate
Wed 03:01:00 AM 7.0075 -73.7950 152° Southeast  Level FlightAware Approximate
Wed 03:02:00 AM 6.8918 -73.7321 152° Southeast  Level FlightAware Approximate
Wed 03:03:00 AM 6.7762 -73.6692 152° Southeast  Level FlightAware Approximate
Wed 03:04:00 AM 6.6606 -73.6063 152° Southeast  Level FlightAware Approximate
Wed 03:05:00 AM 6.5449 -73.5434 152° Southeast  Level FlightAware Approximate
Wed 03:06:00 AM 6.4293 -73.4806 152° Southeast  Level FlightAware Approximate
Wed 03:07:00 AM 6.3136 -73.4179 152° Southeast  Level FlightAware Approximate
Wed 03:08:00 AM 6.1979 -73.3551 152° Southeast  Level FlightAware Approximate
Wed 03:09:00 AM 6.0823 -73.2924 152° Southeast  Level FlightAware Approximate
Wed 03:10:00 AM 5.9665 -73.2298 152° Southeast  Level FlightAware Approximate
Wed 03:11:00 AM 5.8508 -73.1672 152° Southeast  Level FlightAware Approximate
Wed 03:12:00 AM 5.7351 -73.1046 152° Southeast  Level FlightAware Approximate
Wed 03:13:00 AM 5.6194 -73.0420 152° Southeast  Level FlightAware Approximate
Wed 03:14:00 AM 5.5036 -72.9794 152° Southeast  Level FlightAware Approximate
Wed 03:15:00 AM 5.3879 -72.9169 152° Southeast  Level FlightAware Approximate
Wed 03:16:00 AM 5.2721 -72.8544 152° Southeast  Level FlightAware Approximate
Wed 03:17:00 AM 5.1564 -72.7919 152° Southeast  Level FlightAware Approximate
Wed 03:18:00 AM 5.0406 -72.7295 152° Southeast  Level FlightAware Approximate
Wed 03:19:00 AM 4.9248 -72.6671 152° Southeast  Level FlightAware Approximate
Wed 03:20:00 AM 4.8091 -72.6047 152° Southeast  Level FlightAware Approximate
Wed 03:21:00 AM 4.6933 -72.5423 152° Southeast  Level FlightAware Approximate
Wed 03:22:00 AM 4.5775 -72.4799 152° Southeast  Level FlightAware Approximate
Wed 03:23:00 AM 4.4617 -72.4175 152° Southeast  Level FlightAware Approximate
Wed 03:24:00 AM 4.3459 -72.3552 152° Southeast  Level FlightAware Approximate
Wed 03:25:00 AM 4.2301 -72.2929 152° Southeast  Level FlightAware Approximate
Wed 03:26:00 AM 4.1143 -72.2306 152° Southeast  Level FlightAware Approximate
Wed 03:27:00 AM 3.9985 -72.1684 152° Southeast  Level FlightAware Approximate
Wed 03:28:00 AM 3.8863 -72.1002 145° Southeast  Level FlightAware Approximate
Wed 03:29:00 AM 3.7789 -72.0243 145° Southeast  Level FlightAware Approximate
Wed 03:30:00 AM 3.6714 -71.9485 145° Southeast  Level FlightAware Approximate
Wed 03:31:00 AM 3.5640 -71.8727 145° Southeast  Level FlightAware Approximate
Wed 03:32:00 AM 3.4565 -71.7970 145° Southeast  Level FlightAware Approximate
Wed 03:33:00 AM 3.3490 -71.7212 145° Southeast  Level FlightAware Approximate
Wed 03:34:00 AM 3.2415 -71.6455 145° Southeast  Level FlightAware Approximate
Wed 03:35:00 AM 3.1340 -71.5697 145° Southeast  Level FlightAware Approximate
Wed 03:36:00 AM 3.0266 -71.4940 145° Southeast  Level FlightAware Approximate
Wed 03:37:00 AM 2.9190 -71.4184 145° Southeast  Level FlightAware Approximate
Wed 03:38:00 AM 2.8115 -71.3427 145° Southeast  Level FlightAware Approximate
Wed 03:39:00 AM 2.7040 -71.2670 145° Southeast  Level FlightAware Approximate
Wed 03:40:00 AM 2.5965 -71.1914 145° Southeast  Level FlightAware Approximate
Wed 03:41:00 AM 2.4890 -71.1157 145° Southeast  Level FlightAware Approximate
Wed 03:42:00 AM 2.3815 -71.0401 145° Southeast  Level FlightAware Approximate
Wed 03:43:00 AM 2.2739 -70.9645 145° Southeast  Level FlightAware Approximate
Wed 03:44:00 AM 2.1664 -70.8889 145° Southeast  Level FlightAware Approximate
Wed 03:45:00 AM 2.0589 -70.8133 145° Southeast  Level FlightAware Approximate
Wed 03:46:00 AM 1.9513 -70.7377 145° Southeast  Level FlightAware Approximate
Wed 03:47:00 AM 1.8438 -70.6621 145° Southeast  Level FlightAware Approximate
Wed 03:48:00 AM 1.7362 -70.5866 145° Southeast  Level FlightAware Approximate
Wed 03:49:00 AM 1.6287 -70.5110 145° Southeast  Level FlightAware Approximate
Wed 03:50:00 AM 1.5211 -70.4354 145° Southeast  Level FlightAware Approximate
Wed 03:51:00 AM 1.4136 -70.3599 145° Southeast  Level FlightAware Approximate
Wed 03:52:00 AM 1.3060 -70.2844 145° Southeast  Level FlightAware Approximate
Wed 03:53:00 AM 1.2015 -70.2050 138° Southeast  Level FlightAware Approximate
Wed 03:54:00 AM 1.1033 -70.1176 138° Southeast  Level FlightAware Approximate
Wed 03:55:00 AM 1.0052 -70.0302 138° Southeast  Level FlightAware Approximate
Wed 03:56:00 AM 0.9070 -69.9429 138° Southeast  Level FlightAware Approximate
Wed 03:57:00 AM 0.8088 -69.8555 138° Southeast  Level FlightAware Approximate
Wed 03:58:00 AM 0.7106 -69.7681 138° Southeast  Level FlightAware Approximate
Wed 03:59:00 AM 0.6125 -69.6808 138° Southeast  Level FlightAware Approximate
Wed 04:00:00 AM 0.5143 -69.5934 138° Southeast  Level FlightAware Approximate
Wed 04:01:00 AM 0.4161 -69.5061 138° Southeast  Level FlightAware Approximate
Wed 04:02:00 AM 0.3179 -69.4187 138° Southeast  Level FlightAware Approximate
Wed 04:03:00 AM 0.2197 -69.3314 138° Southeast  Level FlightAware Approximate
Wed 04:04:00 AM 0.1215 -69.2440 138° Southeast  Level FlightAware Approximate
Wed 04:05:00 AM 0.0233 -69.1566 138° Southeast  Level FlightAware Approximate
Wed 04:06:00 AM -0.0749 -69.0693 138° Southeast  Level FlightAware Approximate
Wed 04:07:00 AM -0.1730 -68.9819 138° Southeast  Level FlightAware Approximate
Wed 04:08:00 AM -0.2712 -68.8946 138° Southeast  Level FlightAware Approximate
Wed 04:09:00 AM -0.3694 -68.8073 138° Southeast  Level FlightAware Approximate
Wed 04:10:00 AM -0.4676 -68.7199 138° Southeast  Level FlightAware Approximate
Wed 04:11:00 AM -0.5658 -68.6325 138° Southeast  Level FlightAware Approximate
Wed 04:12:00 AM -0.6640 -68.5452 138° Southeast  Level FlightAware Approximate
Wed 04:13:00 AM -0.7621 -68.4578 138° Southeast  Level FlightAware Approximate
Wed 04:14:00 AM -0.8603 -68.3705 138° Southeast  Level FlightAware Approximate
Wed 04:15:00 AM -0.9585 -68.2831 138° Southeast  Level FlightAware Approximate
Wed 04:16:00 AM -1.0567 -68.1957 138° Southeast  Level FlightAware Approximate
Wed 04:17:00 AM -1.1548 -68.1083 138° Southeast  Level FlightAware Approximate
Wed 04:18:00 AM -1.2530 -68.0209 138° Southeast  Level FlightAware Approximate
Wed 04:19:00 AM -1.3512 -67.9335 138° Southeast  Level FlightAware Approximate
Wed 04:20:00 AM -1.4493 -67.8461 138° Southeast  Level FlightAware Approximate
Wed 04:21:00 AM -1.5475 -67.7587 138° Southeast  Level FlightAware Approximate
Wed 04:22:00 AM -1.6457 -67.6713 138° Southeast  Level FlightAware Approximate
Wed 04:23:00 AM -1.7438 -67.5839 138° Southeast  Level FlightAware Approximate
Wed 04:24:00 AM -1.8420 -67.4964 138° Southeast  Level FlightAware Approximate
Wed 04:25:00 AM -1.9401 -67.4090 138° Southeast  Level FlightAware Approximate
Wed 04:26:00 AM -2.0382 -67.3215 138° Southeast  Level FlightAware Approximate
Wed 04:27:00 AM -2.1364 -67.2341 138° Southeast  Level FlightAware Approximate
Wed 04:28:00 AM -2.2345 -67.1466 138° Southeast  Level FlightAware Approximate
Wed 04:29:00 AM -2.3326 -67.0591 138° Southeast  Level FlightAware Approximate
Wed 04:30:00 AM -2.4307 -66.9716 138° Southeast  Level FlightAware Approximate
Wed 04:31:00 AM -2.5288 -66.8841 138° Southeast  Level FlightAware Approximate
Wed 04:32:00 AM -2.6270 -66.7965 138° Southeast  Level FlightAware Approximate
Wed 04:33:00 AM -2.7250 -66.7090 138° Southeast  Level FlightAware Approximate
Wed 04:34:00 AM -2.8231 -66.6215 138° Southeast  Level FlightAware Approximate
Wed 04:35:00 AM -2.9212 -66.5339 138° Southeast  Level FlightAware Approximate
Wed 04:36:00 AM -3.0193 -66.4463 138° Southeast  Level FlightAware Approximate
Wed 04:37:00 AM -3.1174 -66.3587 138° Southeast  Level FlightAware Approximate
Wed 04:38:00 AM -3.2155 -66.2711 138° Southeast  Level FlightAware Approximate
Wed 04:39:00 AM -3.3135 -66.1835 138° Southeast  Level FlightAware Approximate
Wed 04:40:00 AM -3.4116 -66.0958 138° Southeast  Level FlightAware Approximate
Wed 04:41:00 AM -3.5096 -66.0081 138° Southeast  Level FlightAware Approximate
Wed 04:42:00 AM -3.6076 -65.9204 138° Southeast  Level FlightAware Approximate
Wed 04:43:00 AM -3.7057 -65.8327 138° Southeast  Level FlightAware Approximate
Wed 04:44:00 AM -3.8037 -65.7450 138° Southeast  Level FlightAware Approximate
Wed 04:45:00 AM -3.9017 -65.6573 138° Southeast  Level FlightAware Approximate
Wed 04:46:00 AM -3.9997 -65.5695 138° Southeast  Level FlightAware Approximate
Wed 04:47:00 AM -4.0977 -65.4817 138° Southeast  Level FlightAware Approximate
Wed 04:48:00 AM -4.1957 -65.3939 138° Southeast  Level FlightAware Approximate
Wed 04:49:00 AM -4.2936 -65.3061 138° Southeast  Level FlightAware Approximate
Wed 04:50:00 AM -4.3916 -65.2182 138° Southeast  Level FlightAware Approximate
Wed 04:51:00 AM -4.4894 -65.1305 138° Southeast  Level FlightAware Approximate
Wed 04:52:00 AM -4.5872 -65.0427 138° Southeast  Level FlightAware Approximate
Wed 04:53:00 AM -4.6849 -64.9550 138° Southeast  Level FlightAware Approximate
Wed 04:54:00 AM -4.7827 -64.8672 138° Southeast  Level FlightAware Approximate
Wed 04:55:00 AM -4.8804 -64.7794 138° Southeast  Level FlightAware Approximate
Wed 04:56:00 AM -4.9781 -64.6915 138° Southeast  Level FlightAware Approximate
Wed 04:57:00 AM -5.0758 -64.6037 138° Southeast  Level FlightAware Approximate
Wed 04:58:00 AM -5.1735 -64.5157 138° Southeast  Level FlightAware Approximate
Wed 04:59:00 AM -5.2712 -64.4278 138° Southeast  Level FlightAware Approximate
Wed 05:00:00 AM -5.3689 -64.3399 138° Southeast  Level FlightAware Approximate
Wed 05:01:00 AM -5.4666 -64.2519 138° Southeast  Level FlightAware Approximate
Wed 05:02:00 AM -5.5642 -64.1639 138° Southeast  Level FlightAware Approximate
Wed 05:03:00 AM -5.6618 -64.0759 138° Southeast  Level FlightAware Approximate
Wed 05:04:00 AM -5.7595 -63.9878 138° Southeast  Level FlightAware Approximate
Wed 05:05:00 AM -5.8571 -63.8997 138° Southeast  Level FlightAware Approximate
Wed 05:06:00 AM -5.9547 -63.8116 138° Southeast  Level FlightAware Approximate
Wed 05:07:00 AM -6.0523 -63.7234 138° Southeast  Level FlightAware Approximate
Wed 05:08:00 AM -6.1498 -63.6352 138° Southeast  Level FlightAware Approximate
Wed 05:09:00 AM -6.2472 -63.5471 138° Southeast  Level FlightAware Approximate
Wed 05:10:00 AM -6.3446 -63.4590 138° Southeast  Level FlightAware Approximate
Wed 05:11:00 AM -6.4419 -63.3709 138° Southeast  Level FlightAware Approximate
Wed 05:12:00 AM -6.5393 -63.2827 138° Southeast  Level FlightAware Approximate
Wed 05:13:00 AM -6.6366 -63.1945 138° Southeast  Level FlightAware Approximate
Wed 05:14:00 AM -6.7339 -63.1063 138° Southeast  Level FlightAware Approximate
Wed 05:15:00 AM -6.8312 -63.0180 138° Southeast  Level FlightAware Approximate
Wed 05:16:00 AM -6.9285 -62.9297 138° Southeast  Level FlightAware Approximate
Wed 05:17:00 AM -7.0257 -62.8414 138° Southeast  Level FlightAware Approximate
Wed 05:18:00 AM -7.1230 -62.7530 138° Southeast  Level FlightAware Approximate
Wed 05:19:00 AM -7.2202 -62.6646 138° Southeast  Level FlightAware Approximate
Wed 05:20:00 AM -7.3174 -62.5761 138° Southeast  Level FlightAware Approximate
Wed 05:21:00 AM -7.4146 -62.4876 138° Southeast  Level FlightAware Approximate
Wed 05:22:00 AM -7.5118 -62.3991 138° Southeast  Level FlightAware Approximate
Wed 05:23:00 AM -7.6089 -62.3105 138° Southeast  Level FlightAware Approximate
Wed 05:24:00 AM -7.7061 -62.2219 138° Southeast  Level FlightAware Approximate
Wed 05:25:00 AM -7.8032 -62.1332 138° Southeast  Level FlightAware Approximate
Wed 05:26:00 AM -7.9003 -62.0445 138° Southeast  Level FlightAware Approximate
Wed 05:27:00 AM -7.9974 -61.9557 138° Southeast  Level FlightAware Approximate
Wed 05:28:00 AM -8.0944 -61.8670 138° Southeast  Level FlightAware Approximate
Wed 05:29:00 AM -8.1915 -61.7781 138° Southeast  Level FlightAware Approximate
Wed 05:30:00 AM -8.2885 -61.6893 138° Southeast  Level FlightAware Approximate
Wed 05:31:00 AM -8.3855 -61.6004 138° Southeast  Level FlightAware Approximate
Wed 05:32:00 AM -8.4825 -61.5114 138° Southeast  Level FlightAware Approximate
Wed 05:33:00 AM -8.5795 -61.4224 138° Southeast  Level FlightAware Approximate
Wed 05:34:00 AM -8.6764 -61.3334 138° Southeast  Level FlightAware Approximate
Wed 05:35:00 AM -8.7734 -61.2443 138° Southeast  Level FlightAware Approximate
Wed 05:36:00 AM -8.8703 -61.1551 138° Southeast  Level FlightAware Approximate
Wed 05:37:00 AM -8.9671 -61.0659 138° Southeast  Level FlightAware Approximate
Wed 05:38:00 AM -9.0640 -60.9767 138° Southeast  Level FlightAware Approximate
Wed 05:39:00 AM -9.1608 -60.8874 138° Southeast  Level FlightAware Approximate
Wed 05:40:00 AM -9.2577 -60.7981 138° Southeast  Level FlightAware Approximate
Wed 05:41:00 AM -9.3545 -60.7087 138° Southeast  Level FlightAware Approximate
Wed 05:42:00 AM -9.4512 -60.6193 138° Southeast  Level FlightAware Approximate
Wed 05:43:00 AM -9.5480 -60.5298 138° Southeast  Level FlightAware Approximate
Wed 05:44:00 AM -9.6447 -60.4403 138° Southeast  Level FlightAware Approximate
Wed 05:45:00 AM -9.7414 -60.3507 138° Southeast  Level FlightAware Approximate
Wed 05:46:00 AM -9.8379 -60.2612 138° Southeast  Level FlightAware Approximate
Wed 05:47:00 AM -9.9344 -60.1717 138° Southeast  Level FlightAware Approximate
Wed 05:48:00 AM -10.0309 -60.0821 138° Southeast  Level FlightAware Approximate
Wed 05:49:00 AM -10.1273 -59.9925 138° Southeast  Level FlightAware Approximate
Wed 05:50:00 AM -10.2238 -59.9028 138° Southeast  Level FlightAware Approximate
Wed 05:51:00 AM -10.3201 -59.8130 138° Southeast  Level FlightAware Approximate
Wed 05:52:00 AM -10.4165 -59.7232 137° Southeast  Level FlightAware Approximate
Wed 05:53:00 AM -10.5128 -59.6334 137° Southeast  Level FlightAware Approximate
Wed 05:54:00 AM -10.6092 -59.5435 137° Southeast  Level FlightAware Approximate
Wed 05:55:00 AM -10.7055 -59.4535 137° Southeast  Level FlightAware Approximate
Wed 05:56:00 AM -10.8017 -59.3635 137° Southeast  Level FlightAware Approximate
Wed 05:57:00 AM -10.8980 -59.2734 137° Southeast  Level FlightAware Approximate
Wed 05:58:00 AM -10.9942 -59.1833 137° Southeast  Level FlightAware Approximate
Wed 05:59:00 AM -11.0904 -59.0930 137° Southeast  Level FlightAware Approximate
Wed 06:00:00 AM -11.1865 -59.0028 137° Southeast  Level FlightAware Approximate
Wed 06:01:00 AM -11.2827 -58.9125 137° Southeast  Level FlightAware Approximate
Wed 06:02:00 AM -11.3788 -58.8221 137° Southeast  Level FlightAware Approximate
Wed 06:03:00 AM -11.4748 -58.7317 137° Southeast  Level FlightAware Approximate
Wed 06:04:00 AM -11.5709 -58.6412 137° Southeast  Level FlightAware Approximate
Wed 06:05:00 AM -11.6669 -58.5506 137° Southeast  Level FlightAware Approximate
Wed 06:06:00 AM -11.7629 -58.4600 137° Southeast  Level FlightAware Approximate
Wed 06:07:00 AM -11.8589 -58.3693 137° Southeast  Level FlightAware Approximate
Wed 06:08:00 AM -11.9548 -58.2785 137° Southeast  Level FlightAware Approximate
Wed 06:09:00 AM -12.0507 -58.1877 137° Southeast  Level FlightAware Approximate
Wed 06:10:00 AM -12.1466 -58.0968 137° Southeast  Level FlightAware Approximate
Wed 06:11:00 AM -12.2425 -58.0059 137° Southeast  Level FlightAware Approximate
Wed 06:12:00 AM -12.3385 -57.9147 137° Southeast  Level FlightAware Approximate
Wed 06:13:00 AM -12.4344 -57.8235 137° Southeast  Level FlightAware Approximate
Wed 06:14:00 AM -12.5303 -57.7322 137° Southeast  Level FlightAware Approximate
Wed 06:15:00 AM -12.6262 -57.6408 137° Southeast  Level FlightAware Approximate
Wed 06:16:00 AM -12.7221 -57.5493 137° Southeast  Level FlightAware Approximate
Wed 06:17:00 AM -12.8179 -57.4578 137° Southeast  Level FlightAware Approximate
Wed 06:18:00 AM -12.9137 -57.3662 137° Southeast  Level FlightAware Approximate
Wed 06:19:00 AM -13.0095 -57.2746 137° Southeast  Level FlightAware Approximate
Wed 06:20:00 AM -13.1052 -57.1828 137° Southeast  Level FlightAware Approximate
Wed 06:21:00 AM -13.2009 -57.0910 137° Southeast  Level FlightAware Approximate
Wed 06:22:00 AM -13.2966 -56.9992 137° Southeast  Level FlightAware Approximate
Wed 06:23:00 AM -13.3922 -56.9072 137° Southeast  Level FlightAware Approximate
Wed 06:24:00 AM -13.4878 -56.8152 137° Southeast  Level FlightAware Approximate
Wed 06:25:00 AM -13.5834 -56.7231 137° Southeast  Level FlightAware Approximate
Wed 06:26:00 AM -13.6790 -56.6310 137° Southeast  Level FlightAware Approximate
Wed 06:27:00 AM -13.7745 -56.5387 137° Southeast  Level FlightAware Approximate
Wed 06:28:00 AM -13.8699 -56.4464 137° Southeast  Level FlightAware Approximate
Wed 06:29:00 AM -13.9654 -56.3540 137° Southeast  Level FlightAware Approximate
Wed 06:30:00 AM -14.0608 -56.2616 137° Southeast  Level FlightAware Approximate
Wed 06:31:00 AM -14.1561 -56.1690 137° Southeast  Level FlightAware Approximate
Wed 06:32:00 AM -14.2514 -56.0764 137° Southeast  Level FlightAware Approximate
Wed 06:33:00 AM -14.3467 -55.9837 137° Southeast  Level FlightAware Approximate
Wed 06:34:00 AM -14.4420 -55.8909 137° Southeast  Level FlightAware Approximate
Wed 06:35:00 AM -14.5372 -55.7981 137° Southeast  Level FlightAware Approximate
Wed 06:36:00 AM -14.6324 -55.7051 137° Southeast  Level FlightAware Approximate
Wed 06:37:00 AM -14.7275 -55.6121 137° Southeast  Level FlightAware Approximate
Wed 06:38:00 AM -14.8226 -55.5190 137° Southeast  Level FlightAware Approximate
Wed 06:39:00 AM -14.9177 -55.4258 137° Southeast  Level FlightAware Approximate
Wed 06:40:00 AM -15.0127 -55.3326 137° Southeast  Level FlightAware Approximate
Wed 06:41:00 AM -15.1077 -55.2392 137° Southeast  Level FlightAware Approximate
Wed 06:42:00 AM -15.2029 -55.1456 136° Southeast  Level FlightAware Approximate
Wed 06:43:00 AM -15.2980 -55.0520 136° Southeast  Level FlightAware Approximate
Wed 06:44:00 AM -15.3930 -54.9582 136° Southeast  Level FlightAware Approximate
Wed 06:45:00 AM -15.4880 -54.8643 136° Southeast  Level FlightAware Approximate
Wed 06:46:00 AM -15.5830 -54.7704 136° Southeast  Level FlightAware Approximate
Wed 06:47:00 AM -15.6779 -54.6764 136° Southeast  Level FlightAware Approximate
Wed 06:48:00 AM -15.7728 -54.5823 136° Southeast  Level FlightAware Approximate
Wed 06:49:00 AM -15.8677 -54.4881 136° Southeast  Level FlightAware Approximate
Wed 06:50:00 AM -15.9625 -54.3938 136° Southeast  Level FlightAware Approximate
Wed 06:51:00 AM -16.0572 -54.2994 136° Southeast  Level FlightAware Approximate
Wed 06:52:00 AM -16.1520 -54.2049 136° Southeast  Level FlightAware Approximate
Wed 06:53:00 AM -16.2467 -54.1104 136° Southeast  Level FlightAware Approximate
Wed 06:54:00 AM -16.3413 -54.0157 136° Southeast  Level FlightAware Approximate
Wed 06:55:00 AM -16.4359 -53.9210 136° Southeast  Level FlightAware Approximate
Wed 06:56:00 AM -16.5305 -53.8262 136° Southeast  Level FlightAware Approximate
Wed 06:57:00 AM -16.6250 -53.7313 136° Southeast  Level FlightAware Approximate
Wed 06:58:00 AM -16.7194 -53.6362 136° Southeast  Level FlightAware Approximate
Wed 06:59:00 AM -16.8139 -53.5411 136° Southeast  Level FlightAware Approximate
Wed 07:00:00 AM -16.9082 -53.4459 136° Southeast  Level FlightAware Approximate
Wed 07:01:00 AM -17.0026 -53.3506 136° Southeast  Level FlightAware Approximate
Wed 07:02:00 AM -17.0969 -53.2552 136° Southeast  Level FlightAware Approximate
Wed 07:03:00 AM -17.1911 -53.1597 136° Southeast  Level FlightAware Approximate
Wed 07:04:00 AM -17.2853 -53.0641 136° Southeast  Level FlightAware Approximate
Wed 07:05:00 AM -17.3795 -52.9684 136° Southeast  Level FlightAware Approximate
Wed 07:06:00 AM -17.4736 -52.8727 136° Southeast  Level FlightAware Approximate
Wed 07:07:00 AM -17.5677 -52.7768 136° Southeast  Level FlightAware Approximate
Wed 07:08:00 AM -17.6617 -52.6808 136° Southeast  Level FlightAware Approximate
Wed 07:09:00 AM -17.7557 -52.5847 136° Southeast  Level FlightAware Approximate
Wed 07:10:00 AM -17.8496 -52.4885 136° Southeast  Level FlightAware Approximate
Wed 07:11:00 AM -17.9435 -52.3922 136° Southeast  Level FlightAware Approximate
Wed 07:12:00 AM -18.0373 -52.2958 136° Southeast  Level FlightAware Approximate
Wed 07:13:00 AM -18.1311 -52.1993 136° Southeast  Level FlightAware Approximate
Wed 07:14:00 AM -18.2248 -52.1027 136° Southeast  Level FlightAware Approximate
Wed 07:15:00 AM -18.3185 -52.0060 136° Southeast  Level FlightAware Approximate
Wed 07:16:00 AM -18.4122 -51.9092 136° Southeast  Level FlightAware Approximate
Wed 07:17:00 AM -18.5058 -51.8123 136° Southeast  Level FlightAware Approximate
Wed 07:18:00 AM -18.5993 -51.7153 135° Southeast  Level FlightAware Approximate
Wed 07:19:00 AM -18.6928 -51.6182 135° Southeast  Level FlightAware Approximate
Wed 07:20:00 AM -18.7862 -51.5209 135° Southeast  Level FlightAware Approximate
Wed 07:21:00 AM -18.8796 -51.4236 135° Southeast  Level FlightAware Approximate
Wed 07:22:00 AM -18.9730 -51.3261 135° Southeast  Level FlightAware Approximate
Wed 07:23:00 AM -19.0663 -51.2286 135° Southeast  Level FlightAware Approximate
Wed 07:24:00 AM -19.1595 -51.1309 135° Southeast  Level FlightAware Approximate
Wed 07:25:00 AM -19.2527 -51.0331 135° Southeast  Level FlightAware Approximate
Wed 07:26:00 AM -19.3458 -50.9352 135° Southeast  Level FlightAware Approximate
Wed 07:27:00 AM -19.4389 -50.8372 135° Southeast  Level FlightAware Approximate
Wed 07:28:00 AM -19.5319 -50.7391 135° Southeast  Level FlightAware Approximate
Wed 07:29:00 AM -19.6249 -50.6409 135° Southeast  Level FlightAware Approximate
Wed 07:30:00 AM -19.7178 -50.5426 135° Southeast  Level FlightAware Approximate
Wed 07:31:00 AM -19.8107 -50.4441 135° Southeast  Level FlightAware Approximate
Wed 07:32:00 AM -19.9035 -50.3455 135° Southeast  Level FlightAware Approximate
Wed 07:33:00 AM -19.9963 -50.2469 135° Southeast  Level FlightAware Approximate
Wed 07:34:00 AM -20.0890 -50.1481 135° Southeast  Level FlightAware Approximate
Wed 07:35:00 AM -20.1817 -50.0491 135° Southeast  Level FlightAware Approximate
Wed 07:36:00 AM -20.2743 -49.9501 135° Southeast  Level FlightAware Approximate
Wed 07:37:00 AM -20.3668 -49.8509 135° Southeast  Level FlightAware Approximate
Wed 07:38:00 AM -20.4593 -49.7517 135° Southeast  Level FlightAware Approximate
Wed 07:39:00 AM -20.5517 -49.6523 135° Southeast  Level FlightAware Approximate
Wed 07:40:00 AM -20.6441 -49.5528 135° Southeast  Level FlightAware Approximate
Wed 07:41:00 AM -20.7364 -49.4532 135° Southeast  Level FlightAware Approximate
Wed 07:42:00 AM -20.8287 -49.3534 135° Southeast  Level FlightAware Approximate
Wed 07:43:00 AM -20.9209 -49.2535 135° Southeast  Level FlightAware Approximate
Wed 07:44:00 AM -21.0130 -49.1535 135° Southeast  Level FlightAware Approximate
Wed 07:45:00 AM -21.1051 -49.0534 135° Southeast  Level FlightAware Approximate
Wed 07:46:00 AM -21.1971 -48.9531 135° Southeast  Level FlightAware Approximate
Wed 07:47:00 AM -21.2891 -48.8528 135° Southeast  Level FlightAware Approximate
Wed 07:48:00 AM -21.3810 -48.7523 134° Southeast  Level FlightAware Approximate
Wed 07:49:00 AM -21.4729 -48.6516 134° Southeast  Level FlightAware Approximate
Wed 07:50:00 AM -21.5646 -48.5509 134° Southeast  Level FlightAware Approximate
Wed 07:51:00 AM -21.6564 -48.4500 134° Southeast  Level FlightAware Approximate
Wed 07:52:00 AM -21.7480 -48.3490 134° Southeast  Level FlightAware Approximate
Wed 07:53:00 AM -21.8396 -48.2479 134° Southeast  Level FlightAware Approximate
Wed 07:54:00 AM -21.9312 -48.1466 134° Southeast  Level FlightAware Approximate
Wed 07:55:00 AM -22.0226 -48.0452 134° Southeast  Level FlightAware Approximate
Wed 07:56:00 AM -22.1112 -47.9416 126° Southeast  Level FlightAware Approximate
Wed 07:57:00 AM -22.2015 -47.8391 134° Southeast  Level FlightAware Approximate
Wed 07:58:00 AM -22.2923 -47.7368 133° Southeast  Level FlightAware Approximate
Wed 07:59:00 AM -22.3815 -47.6328 133° Southeast  Level FlightAware Approximate
Wed 08:00:00 AM -22.4708 -47.5288 135° Southeast  Level FlightAware Approximate
Wed 08:01:00 AM -22.5633 -47.4281 135° Southeast  Level FlightAware Approximate
Wed 08:02:00 AM -22.6555 -47.3270 133° Southeast  Level FlightAware Approximate
Wed 08:03:00 AM -22.7454 -47.2234 133° Southeast  Level FlightAware Approximate
Wed 08:04:00 AM -22.8352 -47.1197 133° Southeast  Level FlightAware Approximate
Wed 08:05:00 AM -22.9254 -47.0163 134° Southeast  Level FlightAware Approximate
Wed 08:06:00 AM -23.0162 -46.9135 134° Southeast  Level FlightAware Approximate
Wed 08:07:00 AM -23.1080 -46.8116 134° Southeast  Level FlightAware Approximate
Wed 08:08:00 AM -23.2000 -46.7100 132° Southeast  Level FlightAware Approximate
Wed 08:09:00 AM -23.2918 -46.6082 137° Southeast  Level FlightAware Approximate

Login

Don't have an account? Register now (free) for customized features, flight alerts, and more!